Shiloh Hill, Illinois
Current Conditions -  °F | °C
As of 2:35 PM on Thursday 20 Nov 2014 (Local Time) from KSAR Reporting Station
Overcast Overcast  
Wind Chill: 37°   Ceiling: 9000
Heat Index: 37°   Visibility: 10mi
Dew Point: 18°   Wind: 0mph
Humidity: 47%   Direction: NA
Pressure: 30.22"   Gusts: NA
Location:  37.9147°N, 89.5934°W
Report Text: KSAR 202035Z AUTO 00000KT 10SM OVC090 03/M08 A3022 RMK AO2 T00281076
Loading
Personal Weather Stations






























Interactive Weather Map New forecast layout! Learn more

10-Day Weather Forecast

Advertisements
Track Severe Weather on mobile